createdAt,value
2018-10-09T00:00:45.954Z,7.67
2018-10-09T00:03:14.460Z,8.93
2018-10-09T00:05:42.958Z,8.33
2018-10-09T00:08:11.416Z,8.80
2018-10-09T00:10:39.948Z,7.50
2018-10-09T00:13:08.383Z,8.43
2018-10-09T00:15:36.995Z,7.03
2018-10-09T00:18:05.495Z,8.00
2018-10-09T00:20:33.959Z,8.50
2018-10-09T00:23:02.424Z,7.90
2018-10-09T00:25:30.944Z,8.20
2018-10-09T00:27:59.472Z,6.77
2018-10-09T00:30:27.969Z,7.43
2018-10-09T00:32:56.563Z,7.13
2018-10-09T00:35:25.008Z,7.70
2018-10-09T00:37:53.507Z,7.30
2018-10-09T00:40:22.042Z,7.40
2018-10-09T00:42:50.468Z,6.97
2018-10-09T00:45:18.967Z,6.63
2018-10-09T00:47:47.475Z,8.23
2018-10-09T00:50:15.919Z,7.43
2018-10-09T00:52:44.435Z,7.60
2018-10-09T00:55:12.916Z,7.17
2018-10-09T00:57:41.400Z,8.00
2018-10-09T01:00:09.880Z,7.03
2018-10-09T01:02:38.360Z,7.33
2018-10-09T01:05:06.900Z,7.70
2018-10-09T01:07:35.392Z,7.10
2018-10-09T01:10:03.916Z,7.00
2018-10-09T01:12:32.344Z,6.80
2018-10-09T01:15:00.840Z,6.67
2018-10-09T01:17:29.294Z,6.57
2018-10-09T01:19:57.805Z,6.50
2018-10-09T01:22:26.294Z,7.17
2018-10-09T01:24:54.755Z,7.03
2018-10-09T01:27:23.232Z,7.97
2018-10-09T01:29:51.736Z,7.10
2018-10-09T01:33:44.704Z,6.80
2018-10-09T01:36:13.191Z,7.43
2018-10-09T01:38:41.668Z,7.80
2018-10-09T01:41:10.178Z,7.43
2018-10-09T01:43:38.608Z,6.83
2018-10-09T01:46:07.135Z,7.27
2018-10-09T01:48:35.577Z,7.23
2018-10-09T01:51:04.074Z,7.33
2018-10-09T01:53:32.548Z,8.30
2018-10-09T01:56:01.110Z,7.37
2018-10-09T01:58:29.596Z,7.10
2018-10-09T02:00:58.091Z,7.77
2018-10-09T02:03:26.558Z,7.60
2018-10-09T02:05:55.096Z,7.73
2018-10-09T02:08:23.516Z,6.80
2018-10-09T02:10:52.009Z,7.20
2018-10-09T02:13:20.492Z,8.17
2018-10-09T02:15:48.964Z,8.60
2018-10-09T02:18:17.468Z,8.50
2018-10-09T02:20:46.044Z,8.20
2018-10-09T02:23:14.529Z,7.90
2018-10-09T02:25:43.024Z,8.47
2018-10-09T02:28:11.496Z,8.50
2018-10-09T02:30:39.972Z,7.30
2018-10-09T02:33:08.714Z,9.07
2018-10-09T02:35:37.132Z,8.63
2018-10-09T02:38:05.844Z,9.40
2018-10-09T02:40:34.312Z,8.30
2018-10-09T02:43:02.806Z,9.17
2018-10-09T02:45:31.272Z,9.40
2018-10-09T02:47:59.795Z,8.20
2018-10-09T02:50:28.273Z,9.17
2018-10-09T02:52:56.703Z,8.90
2018-10-09T02:55:25.367Z,9.33
2018-10-09T02:57:53.801Z,9.57
2018-10-09T03:00:22.263Z,9.13
2018-10-09T03:02:50.752Z,9.97
2018-10-09T03:05:19.241Z,9.10
2018-10-09T03:07:47.696Z,9.40
2018-10-09T03:10:16.192Z,9.53
2018-10-09T03:12:44.649Z,9.60
2018-10-09T03:15:13.185Z,9.53
2018-10-09T03:17:41.652Z,9.93
2018-10-09T03:20:10.180Z,9.30
2018-10-09T03:22:38.595Z,9.00
2018-10-09T03:25:07.116Z,9.20
2018-10-09T03:27:35.558Z,8.10
2018-10-09T03:30:04.136Z,9.27
2018-10-09T03:32:32.617Z,8.53
2018-10-09T03:35:01.153Z,9.10
2018-10-09T03:37:29.584Z,8.20
2018-10-09T03:39:58.060Z,8.87
2018-10-09T03:42:26.592Z,9.17
2018-10-09T03:44:55.024Z,8.90
2018-10-09T03:47:23.524Z,8.57
2018-10-09T03:49:51.984Z,7.93
2018-10-09T03:52:20.480Z,8.97
2018-10-09T03:54:49.992Z,8.80
2018-10-09T03:57:18.480Z,8.43
2018-10-09T03:59:46.933Z,8.67
2018-10-09T04:02:15.445Z,8.67
2018-10-09T04:04:43.901Z,10.60
2018-10-09T04:07:12.400Z,9.60
2018-10-09T04:09:40.918Z,10.00
2018-10-09T04:12:09.492Z,8.90
2018-10-09T04:14:37.932Z,10.07
2018-10-09T04:17:06.460Z,10.53
2018-10-09T04:19:34.912Z,10.83
2018-10-09T04:22:03.429Z,10.90
2018-10-09T04:24:31.880Z,11.00
2018-10-09T04:27:00.394Z,9.63
2018-10-09T04:29:28.901Z,9.63
2018-10-09T04:31:57.331Z,9.80
2018-10-09T04:34:25.839Z,10.17
2018-10-09T04:36:54.288Z,10.30
2018-10-09T04:39:22.753Z,10.77
2018-10-09T04:41:51.156Z,10.40
2018-10-09T04:44:19.651Z,9.87
2018-10-09T04:46:48.133Z,10.03
2018-10-09T04:49:16.590Z,9.80
2018-10-09T04:51:45.080Z,9.40
2018-10-09T04:54:13.552Z,10.20
2018-10-09T04:56:41.992Z,9.70
2018-10-09T04:59:10.439Z,9.20
2018-10-09T05:01:38.836Z,9.00
2018-10-09T05:04:07.304Z,10.23
2018-10-09T05:06:35.756Z,10.90
2018-10-09T05:09:06.465Z,9.67
2018-10-09T05:11:34.873Z,9.60
2018-10-09T05:14:03.293Z,10.80
2018-10-09T05:16:31.766Z,9.40
2018-10-09T05:19:00.172Z,10.10
2018-10-09T05:21:28.614Z,9.83
2018-10-09T05:23:57.004Z,9.80
2018-10-09T05:26:25.458Z,10.17
2018-10-09T05:28:53.841Z,9.53
2018-10-09T05:31:22.334Z,11.00
2018-10-09T05:33:50.693Z,10.07
2018-10-09T05:36:19.137Z,9.80
2018-10-09T05:38:47.568Z,10.07
2018-10-09T05:41:15.992Z,9.97
2018-10-09T05:43:44.375Z,9.53
2018-10-09T05:46:12.783Z,10.00
2018-10-09T05:48:41.206Z,10.83
2018-10-09T05:51:09.834Z,10.90
2018-10-09T05:53:38.240Z,10.60
2018-10-09T05:56:07.276Z,11.83
2018-10-09T05:58:35.748Z,11.17
2018-10-09T06:01:04.212Z,10.60
2018-10-09T06:03:32.635Z,11.63
2018-10-09T06:06:01.119Z,12.50
2018-10-09T06:08:29.501Z,10.73
2018-10-09T06:10:57.904Z,10.87
2018-10-09T06:13:26.359Z,11.90
2018-10-09T06:15:54.887Z,11.63
2018-10-09T06:18:23.940Z,10.53
2018-10-09T06:20:52.357Z,12.20
2018-10-09T06:23:20.865Z,11.70
2018-10-09T06:25:49.296Z,12.50
2018-10-09T06:28:17.851Z,12.47
2018-10-09T06:30:46.288Z,11.70
2018-10-09T06:33:14.721Z,11.60
2018-10-09T06:35:43.171Z,11.53
2018-10-09T06:38:11.642Z,11.73
2018-10-09T06:40:40.168Z,11.00
2018-10-09T06:43:08.534Z,9.60
2018-10-09T06:45:36.950Z,11.50
2018-10-09T06:48:05.484Z,11.37
2018-10-09T06:50:33.884Z,11.37
2018-10-09T06:53:02.352Z,10.57
2018-10-09T06:55:30.802Z,12.00
2018-10-09T06:57:59.276Z,16.20
2018-10-09T07:00:27.701Z,11.13
2018-10-09T07:02:56.173Z,10.97
2018-10-09T07:05:24.572Z,11.77
2018-10-09T07:07:53.125Z,12.10
2018-10-09T07:10:21.555Z,11.30
2018-10-09T07:12:50.032Z,10.87
2018-10-09T07:15:18.454Z,11.73
2018-10-09T07:17:46.949Z,11.43
2018-10-09T07:20:15.353Z,12.03
2018-10-09T07:22:43.780Z,14.23
2018-10-09T07:25:12.342Z,12.27
2018-10-09T07:27:40.843Z,12.67
2018-10-09T07:30:09.957Z,12.00
2018-10-09T07:32:38.382Z,12.63
2018-10-09T07:35:07.996Z,12.40
2018-10-09T07:37:36.557Z,13.37
2018-10-09T07:40:05.466Z,12.43
2018-10-09T07:42:33.868Z,13.03
2018-10-09T07:45:02.438Z,12.50
2018-10-09T07:47:30.890Z,13.10
2018-10-09T07:49:59.402Z,12.03
2018-10-09T07:52:27.843Z,12.47
2018-10-09T07:54:56.434Z,12.60
2018-10-09T07:57:24.898Z,13.30
2018-10-09T07:59:53.371Z,12.13
2018-10-09T08:02:21.801Z,12.43
2018-10-09T08:04:50.417Z,11.97
2018-10-09T08:07:18.992Z,13.47
2018-10-09T08:09:47.423Z,13.13
2018-10-09T08:12:15.869Z,12.93
2018-10-09T08:14:44.324Z,12.73
2018-10-09T08:17:12.747Z,12.27
2018-10-09T08:19:41.242Z,12.90
2018-10-09T08:22:09.751Z,12.97
2018-10-09T08:24:38.240Z,13.47
2018-10-09T08:27:06.677Z,11.83
2018-10-09T08:29:35.154Z,14.27
2018-10-09T08:32:03.658Z,13.70
2018-10-09T08:34:32.156Z,14.10
2018-10-09T08:37:00.489Z,15.60
2018-10-09T08:39:28.989Z,15.40
2018-10-09T08:41:57.427Z,14.77
2018-10-09T08:44:25.857Z,15.00
2018-10-09T08:46:54.321Z,13.50
2018-10-09T08:49:22.806Z,13.53
2018-10-09T08:51:51.270Z,13.97
2018-10-09T08:54:19.735Z,16.20
2018-10-09T08:56:48.226Z,13.90
2018-10-09T08:59:16.748Z,13.60
2018-10-09T09:01:45.217Z,14.00
2018-10-09T09:04:13.661Z,14.07
2018-10-09T09:06:42.098Z,19.43
2018-10-09T09:09:11.492Z,13.43
2018-10-09T09:11:40.017Z,12.93
2018-10-09T09:14:08.705Z,13.93
2018-10-09T09:16:37.061Z,13.50
2018-10-09T09:19:05.557Z,14.00
2018-10-09T09:21:34.013Z,13.10
2018-10-09T09:24:02.921Z,13.73
2018-10-09T09:26:31.408Z,13.07
2018-10-09T09:28:59.954Z,12.50
2018-10-09T09:31:28.663Z,13.53
2018-10-09T09:33:57.133Z,17.03
2018-10-09T09:36:25.578Z,14.73
2018-10-09T09:38:54.189Z,14.17
2018-10-09T09:41:22.677Z,14.03
2018-10-09T09:43:51.083Z,14.10
2018-10-09T09:46:19.755Z,14.37
2018-10-09T09:48:48.165Z,14.07
2018-10-09T09:51:16.709Z,14.37
2018-10-09T09:53:45.300Z,14.30
2018-10-09T09:56:13.968Z,13.70
2018-10-09T09:58:42.618Z,16.13
2018-10-09T10:01:11.897Z,14.13
2018-10-09T10:03:41.548Z,12.77
2018-10-09T10:06:10.256Z,14.63
2018-10-09T10:08:39.155Z,14.83
2018-10-09T10:11:07.764Z,14.50
2018-10-09T10:13:36.225Z,13.47
2018-10-09T10:16:04.741Z,14.70
2018-10-09T10:18:33.197Z,14.20
2018-10-09T10:21:01.689Z,13.40
2018-10-09T10:23:30.153Z,15.00
2018-10-09T10:25:58.604Z,14.83
2018-10-09T10:28:27.160Z,13.83
2018-10-09T10:30:55.745Z,15.17
2018-10-09T10:33:24.227Z,14.10
2018-10-09T10:35:52.719Z,17.20
2018-10-09T10:38:21.146Z,17.17
2018-10-09T10:40:49.660Z,14.47
2018-10-09T10:43:18.113Z,14.80
2018-10-09T10:45:46.570Z,16.57
2018-10-09T10:48:15.261Z,17.60
2018-10-09T10:50:43.710Z,16.77
2018-10-09T10:53:12.183Z,16.57
2018-10-09T10:55:40.761Z,25.30
2018-10-09T10:58:09.381Z,15.30
2018-10-09T11:00:38.017Z,15.00
2018-10-09T11:03:07.086Z,15.10
2018-10-09T11:05:35.755Z,14.60
2018-10-09T11:08:04.294Z,16.40
2018-10-09T11:10:32.940Z,15.90
2018-10-09T11:13:01.391Z,14.63
2018-10-09T11:15:29.925Z,15.70
2018-10-09T11:17:58.366Z,15.63
2018-10-09T11:20:26.942Z,15.40
2018-10-09T11:22:55.380Z,15.83
2018-10-09T11:25:23.817Z,14.60
2018-10-09T11:27:52.254Z,16.50
2018-10-09T11:30:20.785Z,30.47
2018-10-09T11:32:49.233Z,14.90
2018-10-09T11:35:17.657Z,18.00
2018-10-09T11:37:46.124Z,14.50
2018-10-09T11:40:14.646Z,14.40
2018-10-09T11:42:43.150Z,14.93
2018-10-09T11:45:11.590Z,14.10
2018-10-09T11:47:40.086Z,14.13
2018-10-09T11:50:09.035Z,14.60
2018-10-09T11:52:37.469Z,14.57
2018-10-09T11:55:05.901Z,12.77
2018-10-09T11:57:34.709Z,14.73
2018-10-09T12:00:03.477Z,13.80
2018-10-09T12:02:31.990Z,14.67
2018-10-09T12:05:00.424Z,13.37
2018-10-09T12:07:28.930Z,12.83
2018-10-09T12:09:57.427Z,12.23
2018-10-09T12:12:25.876Z,12.83
2018-10-09T12:14:54.580Z,12.37
2018-10-09T12:17:23.468Z,14.53
2018-10-09T12:19:52.011Z,17.70
2018-10-09T12:22:20.557Z,11.97
2018-10-09T12:24:49.133Z,16.07
2018-10-09T12:27:17.554Z,12.77
2018-10-09T12:29:45.977Z,11.67
2018-10-09T12:32:14.420Z,12.80
2018-10-09T12:34:42.940Z,13.17
2018-10-09T12:37:11.401Z,12.47
2018-10-09T12:39:39.827Z,11.57
2018-10-09T12:42:08.465Z,11.50
2018-10-09T12:44:36.936Z,12.93
2018-10-09T12:47:05.484Z,10.63
2018-10-09T12:49:34.138Z,12.60
2018-10-09T12:52:02.609Z,37.40
2018-10-09T12:54:31.163Z,12.57
2018-10-09T12:56:59.705Z,11.87
2018-10-09T12:59:28.128Z,13.63
2018-10-09T13:01:56.710Z,11.87
2018-10-09T13:04:25.137Z,11.43
2018-10-09T13:06:53.609Z,11.60
2018-10-09T13:09:22.139Z,31.30
2018-10-09T13:11:50.575Z,12.70
2018-10-09T13:14:19.034Z,16.00
2018-10-09T13:16:47.463Z,11.60
2018-10-09T13:19:15.939Z,11.57
2018-10-09T13:21:44.566Z,10.13
2018-10-09T13:24:12.865Z,9.33
2018-10-09T13:26:41.301Z,10.20
2018-10-09T13:29:09.748Z,10.73
2018-10-09T13:31:38.225Z,9.40
2018-10-09T13:34:06.880Z,12.47
2018-10-09T13:36:35.289Z,12.70
2018-10-09T13:39:05.849Z,9.67
2018-10-09T13:41:34.330Z,10.23
2018-10-09T13:44:02.843Z,9.40
2018-10-09T13:46:31.285Z,13.67
2018-10-09T13:48:59.721Z,26.93
2018-10-09T13:51:28.152Z,19.10
2018-10-09T13:53:56.616Z,11.60
2018-10-09T13:56:25.141Z,12.70
2018-10-09T13:58:53.700Z,9.77
2018-10-09T14:01:22.160Z,10.30
2018-10-09T14:03:50.685Z,7.60
2018-10-09T14:06:19.263Z,8.53
2018-10-09T14:08:47.616Z,9.00
2018-10-09T14:11:16.066Z,10.53
2018-10-09T14:13:44.707Z,8.63
2018-10-09T14:16:13.349Z,8.73
2018-10-09T14:18:41.902Z,14.20
2018-10-09T14:21:10.453Z,8.30
2018-10-09T14:23:38.945Z,13.17
2018-10-09T14:26:07.616Z,8.63
2018-10-09T14:28:36.040Z,10.53
2018-10-09T14:31:04.493Z,7.93
2018-10-09T14:33:32.928Z,8.30
2018-10-09T14:36:01.451Z,7.40
2018-10-09T14:38:30.019Z,8.57
2018-10-09T14:40:58.482Z,8.30
2018-10-09T14:43:26.908Z,7.70
2018-10-09T14:45:55.521Z,8.30
2018-10-09T14:48:24.043Z,7.90
2018-10-09T14:50:52.535Z,7.00
2018-10-09T14:53:21.008Z,9.73
2018-10-09T14:55:49.524Z,7.60
2018-10-09T14:58:18.138Z,8.13
2018-10-09T15:00:46.626Z,7.93
2018-10-09T15:03:15.194Z,7.60
2018-10-09T15:05:43.647Z,8.57
2018-10-09T15:08:12.124Z,7.60
2018-10-09T15:10:40.731Z,8.60
2018-10-09T15:13:09.173Z,7.90
2018-10-09T15:15:37.695Z,8.93
2018-10-09T15:18:06.267Z,7.80
2018-10-09T15:20:34.728Z,7.83
2018-10-09T15:23:03.225Z,8.67
2018-10-09T15:25:31.675Z,8.50
2018-10-09T15:28:00.138Z,7.70
2018-10-09T15:30:28.733Z,8.23
2018-10-09T15:32:57.197Z,8.20
2018-10-09T15:35:25.828Z,7.97
2018-10-09T15:37:54.159Z,7.40
2018-10-09T15:40:22.717Z,46.90
2018-10-09T15:42:51.333Z,43.17
2018-10-09T15:45:19.840Z,93.50
2018-10-09T15:47:48.285Z,58.80
2018-10-09T15:50:16.873Z,19.90
2018-10-09T15:52:45.323Z,49.67
2018-10-09T15:55:13.798Z,7.67
2018-10-09T15:57:42.256Z,7.70
2018-10-09T16:00:10.874Z,42.20
2018-10-09T16:02:39.437Z,7.10
2018-10-09T16:05:07.986Z,8.30
2018-10-09T16:07:36.422Z,8.50
2018-10-09T16:10:05.569Z,16.07
2018-10-09T16:12:34.117Z,15.00
2018-10-09T16:15:02.657Z,18.13
2018-10-09T16:17:31.275Z,12.10
2018-10-09T16:19:59.856Z,12.33
2018-10-09T16:22:28.524Z,25.77
2018-10-09T16:24:57.001Z,11.33
2018-10-09T16:27:25.573Z,43.50
2018-10-09T16:29:54.141Z,41.43
2018-10-09T16:32:22.703Z,49.73
2018-10-09T16:34:51.223Z,59.47
2018-10-09T16:37:19.742Z,19.20
2018-10-09T16:39:48.880Z,40.57
2018-10-09T16:42:17.477Z,12.70
2018-10-09T16:44:46.452Z,44.83
2018-10-09T16:47:15.769Z,19.93
2018-10-09T16:49:44.242Z,30.37
2018-10-09T16:52:12.749Z,48.20
2018-10-09T16:54:41.205Z,60.87
2018-10-09T16:57:09.892Z,18.10
2018-10-09T16:59:38.416Z,10.87
2018-10-09T17:02:06.941Z,28.83
2018-10-09T17:04:35.483Z,11.40
2018-10-09T17:07:04.151Z,11.90
2018-10-09T17:09:32.688Z,14.10
2018-10-09T17:12:01.369Z,22.73
2018-10-09T17:14:30.908Z,26.87
2018-10-09T17:16:59.684Z,21.33
2018-10-09T17:19:28.309Z,24.60
2018-10-09T17:21:56.865Z,14.03
2018-10-09T17:24:25.414Z,18.57
2018-10-09T17:26:54.012Z,15.50
2018-10-09T17:29:22.577Z,26.80
2018-10-09T17:31:51.161Z,12.57
2018-10-09T17:34:19.752Z,12.77
2018-10-09T17:36:48.281Z,27.37
2018-10-09T17:39:16.997Z,14.40
2018-10-09T17:41:45.388Z,16.00
2018-10-09T17:44:14.017Z,14.80
2018-10-09T17:46:42.533Z,16.97
2018-10-09T17:49:10.974Z,16.23
2018-10-09T17:51:39.482Z,15.63
2018-10-09T17:54:08.004Z,19.13
2018-10-09T17:56:37.791Z,18.73
2018-10-09T17:59:06.552Z,19.60
2018-10-09T18:01:35.093Z,19.30
2018-10-09T18:04:03.777Z,26.53
2018-10-09T18:06:32.357Z,14.03
2018-10-09T18:09:00.804Z,16.90
2018-10-09T18:11:29.243Z,15.07
2018-10-09T18:13:57.681Z,15.23
2018-10-09T18:16:26.134Z,15.70
2018-10-09T18:18:54.671Z,16.60
2018-10-09T18:21:23.157Z,26.60
2018-10-09T18:23:51.745Z,16.67
2018-10-09T18:26:20.283Z,15.47
2018-10-09T18:28:48.857Z,14.73
2018-10-09T18:31:17.453Z,14.87
2018-10-09T18:33:46.379Z,15.23
2018-10-09T18:36:15.105Z,16.60
2018-10-09T18:38:43.808Z,16.57
2018-10-09T18:41:12.737Z,15.63
2018-10-09T18:43:43.354Z,15.07
2018-10-09T18:46:12.104Z,15.37
2018-10-09T18:48:40.831Z,17.00
2018-10-09T18:51:10.360Z,16.07
2018-10-09T18:53:40.444Z,16.53
2018-10-09T18:56:09.069Z,15.90
2018-10-09T18:58:37.653Z,16.40
2018-10-09T19:01:07.676Z,17.23
2018-10-09T19:03:36.281Z,16.63
2018-10-09T19:06:05.665Z,16.80
2018-10-09T19:08:34.272Z,16.80
2018-10-09T19:11:02.731Z,17.07
2018-10-09T19:13:31.140Z,16.60
2018-10-09T19:15:59.590Z,16.67
2018-10-09T19:18:28.076Z,16.70
2018-10-09T19:20:56.539Z,17.40
2018-10-09T19:23:25.000Z,17.50
2018-10-09T19:25:53.479Z,16.53
2018-10-09T19:28:21.932Z,16.43
2018-10-09T19:30:50.666Z,17.27
2018-10-09T19:33:19.107Z,17.63
2018-10-09T19:35:47.580Z,17.70
2018-10-09T19:38:16.040Z,17.17
2018-10-09T19:40:44.476Z,18.10
2018-10-09T19:43:12.920Z,18.63
2018-10-09T19:45:41.415Z,18.27
2018-10-09T19:48:10.069Z,19.37
2018-10-09T19:50:38.636Z,19.20
2018-10-09T19:53:07.198Z,23.77
2018-10-09T19:55:35.661Z,22.43
2018-10-09T19:58:04.184Z,20.83
2018-10-09T20:00:32.757Z,20.60
2018-10-09T20:03:01.171Z,19.83
2018-10-09T20:05:29.989Z,20.63
2018-10-09T20:07:58.489Z,21.23
2018-10-09T20:10:26.918Z,19.70
2018-10-09T20:12:55.424Z,19.10
2018-10-09T20:15:23.913Z,19.30
2018-10-09T20:17:52.392Z,19.90
2018-10-09T20:20:20.887Z,20.47
2018-10-09T20:22:49.369Z,20.83
2018-10-09T20:25:17.808Z,19.73
2018-10-09T20:27:47.461Z,18.37
2018-10-09T20:30:15.896Z,20.07
2018-10-09T20:32:44.435Z,20.83
2018-10-09T20:35:12.875Z,19.60
2018-10-09T20:37:41.381Z,22.20
2018-10-09T20:40:09.813Z,20.47
2018-10-09T20:42:38.368Z,19.70
2018-10-09T20:45:07.249Z,20.60
2018-10-09T20:47:41.203Z,21.30
2018-10-09T20:50:09.698Z,20.83
2018-10-09T20:52:38.168Z,21.87
2018-10-09T20:55:06.756Z,21.00
2018-10-09T20:57:35.245Z,20.60
2018-10-09T21:00:04.246Z,20.13
2018-10-09T21:02:33.041Z,21.23
2018-10-09T21:05:01.572Z,21.07
2018-10-09T21:07:30.200Z,21.10
2018-10-09T21:09:58.707Z,21.70
2018-10-09T21:12:27.148Z,21.00
2018-10-09T21:14:55.642Z,21.93
2018-10-09T21:17:24.195Z,30.53
2018-10-09T21:19:52.633Z,23.87
2018-10-09T21:22:21.125Z,25.53
2018-10-09T21:24:49.576Z,22.57
2018-10-09T21:27:18.060Z,23.07
2018-10-09T21:29:46.646Z,23.70
2018-10-09T21:32:15.139Z,21.63
2018-10-09T21:34:43.610Z,22.20
2018-10-09T21:37:12.102Z,24.23
2018-10-09T21:39:40.589Z,22.97
2018-10-09T21:42:09.101Z,24.27
2018-10-09T21:44:37.666Z,23.07
2018-10-09T21:47:06.361Z,22.73
2018-10-09T21:49:34.785Z,24.83
2018-10-09T21:52:03.285Z,24.40
2018-10-09T21:54:31.828Z,23.57
2018-10-09T21:57:00.385Z,25.40
2018-10-09T21:59:28.817Z,23.60
2018-10-09T22:01:57.328Z,24.80
2018-10-09T22:04:25.864Z,24.60
2018-10-09T22:06:54.412Z,23.20
2018-10-09T22:09:22.892Z,23.93
2018-10-09T22:11:51.344Z,23.40
2018-10-09T22:14:19.800Z,24.70
2018-10-09T22:16:48.313Z,23.90
2018-10-09T22:19:16.776Z,25.10
2018-10-09T22:21:45.272Z,24.10
2018-10-09T22:24:13.701Z,24.10
2018-10-09T22:26:42.127Z,24.77
2018-10-09T22:29:10.551Z,23.63
2018-10-09T22:31:38.998Z,24.63
2018-10-09T22:34:07.697Z,24.97
2018-10-09T22:36:36.157Z,24.13
2018-10-09T22:39:06.868Z,25.13
2018-10-09T22:41:35.311Z,25.47
2018-10-09T22:44:03.830Z,24.07
2018-10-09T22:46:32.209Z,25.10
2018-10-09T22:49:00.677Z,25.60
2018-10-09T22:51:29.117Z,25.67
2018-10-09T22:53:57.546Z,24.77
2018-10-09T22:56:26.025Z,26.20
2018-10-09T22:58:54.457Z,26.20
2018-10-09T23:01:22.873Z,24.47
2018-10-09T23:03:51.296Z,26.57
2018-10-09T23:06:19.699Z,27.20
2018-10-09T23:08:48.157Z,27.03
2018-10-09T23:11:16.560Z,26.77
2018-10-09T23:13:44.979Z,27.80
2018-10-09T23:16:13.410Z,25.83
2018-10-09T23:18:42.756Z,25.50
2018-10-09T23:21:11.121Z,26.80
2018-10-09T23:23:39.544Z,26.33
2018-10-09T23:26:07.988Z,25.47
2018-10-09T23:28:36.406Z,28.60
2018-10-09T23:31:04.897Z,24.93
2018-10-09T23:33:33.357Z,26.40
2018-10-09T23:36:01.769Z,26.60
2018-10-09T23:38:30.205Z,25.97
2018-10-09T23:40:58.604Z,27.03
2018-10-09T23:43:27.072Z,26.07
2018-10-09T23:45:55.567Z,25.00
2018-10-09T23:48:23.994Z,26.10
2018-10-09T23:50:52.406Z,24.83
2018-10-09T23:53:20.843Z,27.77
2018-10-09T23:55:49.318Z,25.80
2018-10-09T23:58:17.763Z,26.30
